Time;durP1;ratioP1;P1;durP2;ratioP2;P2;SDS_P1;SDS_P2;PMS_P1;PMS_P2;Temp;Humidity;BMP_temperature;BMP_pressure;BME280_temperature;BME280_humidity;BME280_pressure;Samples;Min_cycle;Max_cycle;Signal;HPM_P1;HPM_P2
2023/08/18 00:00:33;;;;;;;6.10;5.68;;;;;;;21.12;92.87;154014.94;10456210;28;20053;-74
2023/08/18 00:05:35;;;;;;;6.22;5.82;;;;;;;20.99;92.85;153979.84;10456261;28;20083;-74
2023/08/18 00:10:37;;;;;;;6.65;6.22;;;;;;;21.03;92.85;153990.19;10455365;28;20491;-75
2023/08/18 00:15:39;;;;;;;6.22;5.82;;;;;;;21.07;93.68;154000.59;10456593;28;20556;-74
2023/08/18 00:20:40;;;;;;;6.60;6.20;;;;;;;21.09;94.07;154005.84;10455431;28;20044;-74
2023/08/18 00:25:42;;;;;;;6.78;6.18;;;;;;;21.11;94.45;154011.00;10455506;28;20119;-73
2023/08/18 00:30:44;;;;;;;6.13;5.72;;;;;;;20.83;95.71;153939.50;10438283;28;20570;-74
2023/08/18 00:35:46;;;;;;;6.68;6.25;;;;;;;20.79;95.83;153929.09;10437356;28;20419;-74
2023/08/18 00:40:48;;;;;;;6.82;6.43;;;;;;;20.70;96.18;153905.69;10457671;28;20159;-74
2023/08/18 00:45:52;;;;;;;6.63;6.22;;;;;;;20.80;96.67;153931.69;10463248;28;20502;-74
2023/08/18 00:50:58;;;;;;;6.93;6.53;;;;;;;20.73;96.80;153914.78;10444219;28;20045;-74
2023/08/18 00:56:01;;;;;;;7.07;6.57;;;;;;;20.70;97.12;153905.69;10462153;28;20045;-74
2023/08/18 01:01:04;;;;;;;7.25;6.80;;;;;;;20.50;97.97;153855.00;10462583;28;20045;-75
2023/08/18 01:06:05;;;;;;;8.23;7.72;;;;;;;20.54;98.68;153866.69;10443988;28;20080;-74
2023/08/18 01:11:55;;;;;;;7.47;6.97;;;;;;;20.45;98.88;153841.91;10443183;28;20449;-75
2023/08/18 01:17:04;;;;;;;7.22;6.72;;;;;;;20.36;99.02;153821.13;10461269;28;20422;-76
2023/08/18 01:22:11;;;;;;;7.32;6.82;;;;;;;20.41;98.79;153834.13;10464988;28;20048;-76
2023/08/18 01:27:14;;;;;;;7.45;6.95;;;;;;;20.29;99.14;153801.63;10458277;28;20049;-75
2023/08/18 01:32:18;;;;;;;7.63;6.75;;;;;;;20.25;99.35;153792.50;10433358;28;20064;-76
2023/08/18 01:37:20;;;;;;;6.55;6.03;;;;;;;20.34;99.37;153815.91;10466797;28;20040;-75
2023/08/18 01:42:22;;;;;;;6.10;5.70;;;;;;;20.27;99.95;153797.69;10465207;28;20045;-76
2023/08/18 01:47:24;;;;;;;6.30;5.80;;;;;;;20.17;98.95;153771.69;10447764;28;20037;-74
2023/08/18 01:52:26;;;;;;;5.63;5.30;;;;;;;20.31;99.67;153806.78;10463877;28;20124;-75
2023/08/18 01:57:28;;;;;;;6.75;6.35;;;;;;;20.15;100.00;153766.53;10446220;28;20044;-75
2023/08/18 02:02:31;;;;;;;6.70;6.10;;;;;;;20.11;100.00;153757.41;10443948;28;20052;-75
2023/08/18 02:07:33;;;;;;;6.32;5.93;;;;;;;20.13;100.00;153762.59;10460081;28;20107;-77
2023/08/18 02:12:35;;;;;;;7.38;6.88;;;;;;;20.11;100.00;153757.41;10460797;28;20033;-76
2023/08/18 02:17:37;;;;;;;7.15;6.75;;;;;;;20.02;100.00;153734.03;10426607;28;20546;-76
2023/08/18 02:22:39;;;;;;;6.25;5.75;;;;;;;19.83;100.00;153684.59;10459393;28;20073;-76
2023/08/18 02:27:41;;;;;;;6.20;5.80;;;;;;;19.82;100.00;153682.00;10441678;28;20140;-75
2023/08/18 02:32:43;;;;;;;7.72;7.15;;;;;;;19.98;100.00;153723.63;10443092;28;20053;-76
2023/08/18 02:37:45;;;;;;;7.93;7.28;;;;;;;19.86;100.00;153692.41;10441850;28;20044;-76
2023/08/18 02:42:47;;;;;;;7.07;6.57;;;;;;;19.84;100.00;153688.53;10459576;28;20063;-75
2023/08/18 02:47:49;;;;;;;7.68;7.07;;;;;;;19.58;100.00;153622.19;10459251;28;20071;-75
2023/08/18 02:52:51;;;;;;;7.57;7.00;;;;;;;19.78;100.00;153672.91;10459701;28;20155;-76
2023/08/18 02:57:52;;;;;;;7.00;6.60;;;;;;;19.61;100.00;153630.06;10458659;28;20049;-76
2023/08/18 03:02:54;;;;;;;7.95;7.45;;;;;;;19.49;100.00;153597.50;10424838;28;20044;-76
2023/08/18 03:07:56;;;;;;;6.80;6.40;;;;;;;19.42;100.00;153581.91;10458093;28;20033;-77
2023/08/18 03:12:58;;;;;;;7.63;7.13;;;;;;;19.34;100.00;153559.81;10441185;28;20048;-76
2023/08/18 03:18:00;;;;;;;8.13;7.63;;;;;;;19.46;100.00;153591.00;10441370;28;20045;-76
2023/08/18 03:23:02;;;;;;;7.95;7.35;;;;;;;19.56;100.00;153615.69;10426104;28;20055;-76
2023/08/18 03:28:04;;;;;;;8.20;7.70;;;;;;;19.62;100.00;153632.66;10460565;28;20037;-75
2023/08/18 03:33:07;;;;;;;7.72;7.22;;;;;;;19.48;100.00;153594.88;10442587;28;20045;-75
2023/08/18 03:38:09;;;;;;;7.78;7.18;;;;;;;19.46;100.00;153589.69;10459973;28;20048;-76
2023/08/18 03:43:10;;;;;;;8.20;7.70;;;;;;;19.44;100.00;153584.53;10441165;28;20087;-75
2023/08/18 03:48:12;;;;;;;8.55;7.85;;;;;;;19.09;100.00;153496.19;10440667;28;20128;-75
2023/08/18 03:53:15;;;;;;;7.25;6.75;;;;;;;19.01;100.00;153476.69;10440032;28;20120;-76
2023/08/18 03:58:17;;;;;;;8.05;7.47;;;;;;;19.09;100.00;153497.47;10458015;28;20388;-75
2023/08/18 04:03:20;;;;;;;8.27;7.78;;;;;;;19.14;100.00;153509.16;10459049;28;20064;-75
2023/08/18 04:08:24;;;;;;;8.10;7.60;;;;;;;19.21;100.00;153527.31;10440121;28;20102;-76
2023/08/18 04:13:27;;;;;;;7.78;7.20;;;;;;;19.18;100.00;153519.56;10423751;28;20041;-76
2023/08/18 04:18:29;;;;;;;8.25;7.75;;;;;;;19.01;100.00;153475.38;10466392;28;20041;-75
2023/08/18 04:23:31;;;;;;;8.27;7.68;;;;;;;19.47;100.00;153592.28;10466768;28;20033;-76
2023/08/18 04:28:34;;;;;;;9.57;8.90;;;;;;;19.37;100.00;153567.63;10446694;28;20055;-75
2023/08/18 04:33:36;;;;;;;8.40;7.90;;;;;;;19.15;100.00;153513.03;10446570;28;20138;-76
2023/08/18 04:38:39;;;;;;;8.13;7.53;;;;;;;19.20;100.00;153524.72;10447025;28;20449;-75
2023/08/18 04:43:44;;;;;;;9.48;8.77;;;;;;;19.28;100.00;153544.22;10445666;28;20049;-76
2023/08/18 04:48:45;;;;;;;8.55;7.90;;;;;;;19.31;100.00;153553.34;10446606;28;20410;-76
2023/08/18 04:53:48;;;;;;;9.98;9.18;;;;;;;19.42;100.00;153581.91;10428828;28;20395;-76
2023/08/18 04:58:49;;;;;;;8.90;8.30;;;;;;;19.49;100.00;153598.81;10445366;28;20053;-75
2023/08/18 05:03:51;;;;;;;8.93;8.40;;;;;;;19.64;100.00;153637.81;10444470;28;20045;-76
2023/08/18 05:08:53;;;;;;;11.40;10.63;;;;;;;19.69;100.00;153648.22;10462830;28;20538;-75
2023/08/18 05:13:54;;;;;;;9.85;9.25;;;;;;;19.78;100.00;153671.59;10445177;28;20490;-76
2023/08/18 05:18:58;;;;;;;11.18;10.35;;;;;;;19.80;100.00;153676.84;10465617;28;20048;-75
2023/08/18 05:24:00;;;;;;;11.27;10.57;;;;;;;20.03;100.00;153736.59;10463270;28;20045;-76
2023/08/18 05:29:02;;;;;;;11.43;10.73;;;;;;;19.93;100.00;153709.34;10462815;28;20072;-76
2023/08/18 05:34:04;;;;;;;12.20;11.40;;;;;;;19.98;100.00;153723.63;10489263;28;20051;-76
2023/08/18 05:39:06;;;;;;;11.25;10.55;;;;;;;20.17;100.00;153773.00;10503132;28;20119;-76
2023/08/18 05:44:08;;;;;;;10.77;10.18;;;;;;;20.37;100.00;153822.44;10485621;28;20068;-76
2023/08/18 05:49:10;;;;;;;11.95;11.15;;;;;;;20.31;100.00;153806.78;10504157;28;20482;-76
2023/08/18 05:54:11;;;;;;;10.88;10.07;;;;;;;20.49;100.00;153852.34;10503888;28;20098;-75
2023/08/18 05:59:13;;;;;;;8.95;8.45;;;;;;;20.70;100.00;153906.97;10484690;28;20048;-75
2023/08/18 06:04:15;;;;;;;10.50;9.77;;;;;;;21.14;99.97;154020.13;10502983;28;20054;-76
2023/08/18 06:09:16;;;;;;;11.55;10.65;;;;;;;21.32;97.13;154064.41;10503151;28;20045;-76
2023/08/18 06:14:18;;;;;;;11.18;10.27;;;;;;;21.47;96.00;154103.47;10503195;28;20402;-77
2023/08/18 06:19:20;;;;;;;12.70;11.77;;;;;;;21.63;94.52;154145.06;10502981;28;20490;-76
2023/08/18 06:24:22;;;;;;;10.43;9.63;;;;;;;22.08;90.77;154258.28;10501989;28;20044;-76
2023/08/18 06:29:23;;;;;;;11.73;10.88;;;;;;;22.53;87.29;154374.19;10501483;28;20054;-75
2023/08/18 06:34:25;;;;;;;11.20;10.50;;;;;;;22.87;85.95;154460.13;10501923;28;20071;-76
2023/08/18 06:39:27;;;;;;;9.70;9.10;;;;;;;23.22;84.41;154550.06;10500158;28;20036;-75
2023/08/18 06:44:30;;;;;;;9.77;9.18;;;;;;;23.20;83.18;154544.88;10500820;28;20041;-76
2023/08/18 06:49:32;;;;;;;11.48;10.73;;;;;;;23.01;84.15;154495.34;10500673;28;20205;-77
2023/08/18 06:54:33;;;;;;;10.30;9.50;;;;;;;23.25;81.94;154557.88;10499269;28;20056;-76
2023/08/18 06:59:35;;;;;;;10.35;9.68;;;;;;;23.58;82.38;154642.53;10499384;28;20044;-76
2023/08/18 07:04:37;;;;;;;9.70;8.80;;;;;;;24.08;80.36;154770.31;10500648;28;20417;-77
2023/08/18 07:09:38;;;;;;;9.32;8.73;;;;;;;23.89;80.02;154722.06;10500419;28;20413;-75
2023/08/18 07:14:40;;;;;;;29.17;9.73;;;;;;;24.20;77.28;154798.97;10500935;28;20048;-72
2023/08/18 07:19:42;;;;;;;9.77;9.07;;;;;;;24.16;78.85;154789.84;10499998;28;20112;-72
2023/08/18 07:24:44;;;;;;;9.43;8.73;;;;;;;24.35;74.18;154839.41;10500361;28;20048;-72
2023/08/18 07:29:45;;;;;;;8.45;7.85;;;;;;;24.23;75.02;154808.09;10499225;28;20116;-72
2023/08/18 07:34:47;;;;;;;8.05;7.47;;;;;;;24.07;77.28;154767.69;10499192;28;20550;-72
2023/08/18 07:39:49;;;;;;;8.23;7.72;;;;;;;24.36;75.38;154840.69;10498970;28;20116;-72
2023/08/18 07:44:50;;;;;;;7.28;6.72;;;;;;;24.40;76.47;154851.16;10498464;28;20063;-72
2023/08/18 07:49:52;;;;;;;9.55;8.75;;;;;;;24.58;75.90;154898.09;10484595;28;20036;-72
2023/08/18 07:54:54;;;;;;;8.05;7.55;;;;;;;24.72;74.21;154933.28;10491433;28;20057;-71
2023/08/18 07:59:56;;;;;;;8.98;8.43;;;;;;;24.26;77.61;154814.59;10466610;28;20407;-72
2023/08/18 08:04:58;;;;;;;8.40;7.80;;;;;;;24.55;75.51;154888.97;10494601;28;20087;-72
2023/08/18 08:10:03;;;;;;;7.88;7.38;;;;;;;24.75;75.13;154939.84;10506780;28;20096;-71
2023/08/18 08:15:08;;;;;;;8.68;8.07;;;;;;;24.79;75.16;154950.22;10489912;28;20037;-71
2023/08/18 08:20:16;;;;;;;8.70;8.10;;;;;;;25.05;73.91;155016.72;10508931;28;20107;-73
2023/08/18 08:25:18;;;;;;;9.82;9.20;;;;;;;25.20;74.60;155054.63;10500402;28;20044;-72
2023/08/18 08:30:20;;;;;;;9.23;8.57;;;;;;;24.87;77.01;154971.09;10490139;28;20111;-73
2023/08/18 08:35:36;;;;;;;9.73;9.18;;;;;;;25.20;74.58;155055.91;10506907;28;20067;-72
2023/08/18 08:40:40;;;;;;;8.93;8.32;;;;;;;25.32;73.90;155087.22;10505364;28;20118;-72
2023/08/18 08:45:42;;;;;;;9.90;9.10;;;;;;;25.71;72.49;155185.03;10505754;28;20040;-73
2023/08/18 08:50:49;;;;;;;9.82;9.15;;;;;;;25.78;73.19;155203.34;10504443;28;20051;-73
2023/08/18 08:55:53;;;;;;;9.98;9.27;;;;;;;25.78;74.99;155203.34;10505159;28;20048;-72
2023/08/18 09:01:01;;;;;;;11.07;10.38;;;;;;;25.85;73.20;155221.59;10485779;28;20512;-72
2023/08/18 09:06:03;;;;;;;11.02;10.32;;;;;;;26.13;72.82;155294.69;10505780;28;20574;-75
2023/08/18 09:11:04;;;;;;;12.13;11.30;;;;;;;26.05;73.84;155273.78;10504075;28;20080;-73
2023/08/18 09:16:06;;;;;;;11.98;11.10;;;;;;;26.32;73.08;155341.66;10504469;28;20123;-73
2023/08/18 09:21:08;;;;;;;10.88;10.05;;;;;;;26.62;72.36;155418.72;10504590;28;20037;-73
2023/08/18 09:26:11;;;;;;;9.85;9.15;;;;;;;26.78;71.06;155459.16;10503914;28;20097;-73
2023/08/18 09:31:12;;;;;;;10.77;10.07;;;;;;;27.05;69.31;155528.31;10503715;28;20036;-72
2023/08/18 09:36:14;;;;;;;11.23;10.52;;;;;;;27.04;68.56;155525.72;10504580;28;20421;-71
2023/08/18 09:41:16;;;;;;;10.40;9.60;;;;;;;27.55;65.16;155656.38;10503935;28;20051;-72
2023/08/18 09:46:18;;;;;;;9.88;9.07;;;;;;;28.03;63.38;155780.50;10504081;28;20079;-73
2023/08/18 09:51:21;;;;;;;9.63;9.02;;;;;;;28.00;63.80;155771.34;10483874;28;20127;-73
2023/08/18 09:56:32;;;;;;;9.30;8.80;;;;;;;28.22;61.17;155828.84;10501577;28;20044;-72
2023/08/18 10:01:36;;;;;;;9.18;8.57;;;;;;;28.34;59.35;155858.91;10504234;28;20490;-73
2023/08/18 10:06:40;;;;;;;8.90;8.20;;;;;;;28.65;58.74;155938.66;10502167;28;20379;-73
2023/08/18 10:11:42;;;;;;;7.32;6.78;;;;;;;28.91;55.93;156006.63;10483783;28;20465;-71
2023/08/18 10:16:55;;;;;;;6.63;6.15;;;;;;;29.59;52.83;156179.25;10502116;28;20036;-71
2023/08/18 10:21:57;;;;;;;7.30;6.80;;;;;;;29.62;53.30;156187.09;10501125;28;20041;-73
2023/08/18 10:26:59;;;;;;;7.00;6.55;;;;;;;29.83;53.44;156241.97;10503515;28;20047;-72
2023/08/18 10:32:08;;;;;;;5.43;5.13;;;;;;;30.47;49.85;156405.53;10501062;28;20036;-71
2023/08/18 10:37:21;;;;;;;7.35;4.95;;;;;;;30.93;48.58;156522.03;10620465;27;20404;-72
2023/08/18 10:42:22;;;;;;;5.10;4.60;;;;;;;30.37;46.00;156379.34;10620907;27;20074;-72
2023/08/18 10:47:31;;;;;;;5.50;5.10;;;;;;;30.90;48.25;156515.44;10620302;27;20047;-71
2023/08/18 10:52:33;;;;;;;6.63;5.40;;;;;;;30.86;47.23;156506.34;10620274;28;20043;-72
2023/08/18 10:57:37;;;;;;;4.28;3.97;;;;;;;31.66;44.26;156710.53;10619311;27;20419;-72
2023/08/18 11:02:38;;;;;;;4.10;3.80;;;;;;;31.86;43.13;156762.91;10619345;27;20035;-72
2023/08/18 11:07:40;;;;;;;3.83;3.53;;;;;;;31.77;43.48;156738.00;10619165;27;20043;-71
2023/08/18 11:12:43;;;;;;;3.00;2.80;;;;;;;32.09;41.24;156821.81;10619149;27;20036;-71
2023/08/18 11:17:46;;;;;;;3.95;2.92;;;;;;;32.44;41.99;156910.91;10619284;27;20114;-71
2023/08/18 11:22:52;;;;;;;3.88;3.42;;;;;;;32.61;41.52;156955.44;10619221;27;20119;-72
2023/08/18 11:27:54;;;;;;;4.07;3.67;;;;;;;32.77;40.42;156994.75;10618899;27;20069;-71
2023/08/18 11:32:56;;;;;;;3.28;3.08;;;;;;;32.08;41.03;156819.22;10619341;27;20069;-72
2023/08/18 11:37:58;;;;;;;3.72;3.42;;;;;;;32.41;42.41;156903.09;10618015;27;20142;-72
2023/08/18 11:43:00;;;;;;;3.65;3.45;;;;;;;32.22;42.29;156853.25;10618324;27;20111;-72
2023/08/18 11:48:03;;;;;;;4.78;4.30;;;;;;;31.94;43.84;156782.56;10594039;27;20044;-72
2023/08/18 11:53:07;;;;;;;4.82;4.50;;;;;;;32.16;42.97;156838.84;10589872;28;20075;-72
2023/08/18 11:58:16;;;;;;;4.80;4.50;;;;;;;31.83;44.22;156755.09;10591348;28;20039;-72
2023/08/18 12:03:26;;;;;;;5.30;4.82;;;;;;;32.14;43.74;156833.59;10593662;28;20075;-72
2023/08/18 12:08:29;;;;;;;5.30;4.85;;;;;;;32.68;43.95;156971.19;10596266;27;20118;-73
2023/08/18 12:13:33;;;;;;;5.15;4.75;;;;;;;32.38;43.49;156895.22;10596623;28;20082;-72
2023/08/18 12:18:35;;;;;;;4.87;4.57;;;;;;;31.96;42.39;156786.47;10596226;28;20050;-72
2023/08/18 12:23:39;;;;;;;4.68;4.28;;;;;;;32.01;42.46;156799.56;10591449;28;20063;-72
2023/08/18 12:28:41;;;;;;;4.10;3.80;;;;;;;32.27;41.34;156867.63;10594543;28;20047;-72
2023/08/18 12:33:44;;;;;;;4.80;4.40;;;;;;;31.89;44.52;156769.47;10597502;28;20066;-72
2023/08/18 12:38:47;;;;;;;5.30;4.43;;;;;;;31.88;45.46;156766.88;10605115;28;20058;-72
2023/08/18 12:43:50;;;;;;;4.13;3.80;;;;;;;32.03;43.22;156806.13;10594218;28;20088;-72
2023/08/18 12:48:52;;;;;;;4.57;4.22;;;;;;;31.40;44.89;156645.09;10590338;28;20043;-70
2023/08/18 12:53:54;;;;;;;3.92;3.72;;;;;;;31.40;43.26;156643.78;10593645;28;20069;-72
2023/08/18 12:58:56;;;;;;;4.82;4.45;;;;;;;31.21;44.98;156593.97;10588166;28;20039;-72
2023/08/18 13:03:58;;;;;;;4.55;4.20;;;;;;;31.70;44.04;156719.66;10592252;28;20039;-71
2023/08/18 13:09:00;;;;;;;4.75;4.35;;;;;;;31.54;43.69;156680.41;10592881;28;20047;-70
2023/08/18 13:14:03;;;;;;;2.95;2.75;;;;;;;31.78;43.61;156741.91;10595648;28;20110;-71
2023/08/18 13:19:05;;;;;;;2.55;2.35;;;;;;;32.35;40.99;156888.59;10595558;28;20035;-71
2023/08/18 13:24:07;;;;;;;2.75;2.42;;;;;;;32.27;42.50;156866.34;10586875;28;20035;-71
2023/08/18 13:29:09;;;;;;;3.83;2.85;;;;;;;31.88;43.09;156766.88;10568380;28;20047;-71
2023/08/18 13:34:11;;;;;;;2.70;2.60;;;;;;;32.06;41.84;156812.69;10583846;28;20063;-71
2023/08/18 13:39:15;;;;;;;3.17;2.88;;;;;;;32.14;43.22;156834.94;10586311;28;20050;-71
2023/08/18 13:44:17;;;;;;;3.07;2.87;;;;;;;31.59;41.50;156693.50;10590373;28;20482;-71
2023/08/18 13:49:19;;;;;;;2.83;2.42;;;;;;;32.08;40.99;156817.91;10586282;28;20035;-71
2023/08/18 13:54:21;;;;;;;2.92;2.72;;;;;;;32.07;42.00;156816.59;10592332;28;20436;-70
2023/08/18 13:59:23;;;;;;;3.25;2.95;;;;;;;32.14;42.54;156834.94;10586888;28;20036;-71
2023/08/18 14:04:25;;;;;;;3.00;2.80;;;;;;;32.05;41.15;156811.38;10584880;28;20423;-71
2023/08/18 14:09:27;;;;;;;4.75;3.08;;;;;;;31.03;42.20;156548.16;10586281;28;20115;-70
2023/08/18 14:14:29;;;;;;;3.33;3.03;;;;;;;30.99;43.84;156537.69;10585387;28;20119;-71
2023/08/18 14:19:31;;;;;;;2.97;2.63;;;;;;;30.75;43.15;156477.53;10586146;28;20043;-71
2023/08/18 14:24:33;;;;;;;3.20;2.95;;;;;;;30.90;46.07;156515.44;10585501;28;20031;-71
2023/08/18 14:29:36;;;;;;;4.22;3.08;;;;;;;31.35;43.88;156632.00;10586310;28;20484;-70
2023/08/18 14:34:38;;;;;;;2.72;2.53;;;;;;;31.21;43.16;156595.31;10591522;28;20621;-70
2023/08/18 14:39:40;;;;;;;3.15;2.95;;;;;;;30.64;43.16;156450.03;10581475;28;20108;-70
2023/08/18 14:44:42;;;;;;;3.15;2.88;;;;;;;30.57;44.17;156430.41;10585315;28;20039;-70
2023/08/18 14:49:44;;;;;;;3.00;2.80;;;;;;;30.86;42.83;156506.34;10582113;28;20409;-70
2023/08/18 14:54:46;;;;;;;4.50;4.10;;;;;;;31.00;43.71;156541.66;10582459;28;20090;-71
2023/08/18 14:59:48;;;;;;;4.03;3.72;;;;;;;30.76;44.39;156478.84;10583168;28;20039;-70
2023/08/18 15:04:49;;;;;;;3.30;3.10;;;;;;;30.37;44.49;156380.69;10582594;28;20139;-71
2023/08/18 15:09:51;;;;;;;3.47;3.28;;;;;;;30.09;45.89;156308.69;10582464;28;20052;-70
2023/08/18 15:14:53;;;;;;;3.70;3.40;;;;;;;29.69;45.76;156204.09;10584384;28;20041;-71
2023/08/18 15:19:55;;;;;;;3.30;3.00;;;;;;;29.51;45.09;156159.56;10583319;28;20044;-71
2023/08/18 15:24:56;;;;;;;3.95;3.28;;;;;;;29.24;46.98;156089.00;10590547;28;20031;-71
2023/08/18 15:29:58;;;;;;;2.78;2.58;;;;;;;29.34;46.50;156116.44;10589986;28;20097;-71
2023/08/18 15:35:00;;;;;;;3.08;2.88;;;;;;;29.57;46.30;156174.00;10589471;28;20394;-71
2023/08/18 15:40:02;;;;;;;2.92;2.72;;;;;;;29.37;45.72;156124.28;10589740;27;20047;-71
2023/08/18 15:45:04;;;;;;;2.88;2.53;;;;;;;29.52;46.39;156162.19;10587748;28;20044;-71
2023/08/18 15:50:06;;;;;;;2.92;2.72;;;;;;;29.40;46.88;156130.84;10589631;28;20050;-71
2023/08/18 15:55:08;;;;;;;3.22;2.92;;;;;;;28.86;49.50;155993.50;10588600;28;20046;-71
2023/08/18 16:00:11;;;;;;;4.05;3.75;;;;;;;28.64;51.54;155936.00;10589347;28;20597;-71
2023/08/18 16:05:15;;;;;;;3.28;2.97;;;;;;;28.58;50.83;155921.66;10589241;28;20046;-71
2023/08/18 16:10:17;;;;;;;3.70;3.50;;;;;;;28.59;50.48;155924.25;10590402;28;20118;-71
2023/08/18 16:15:19;;;;;;;3.83;3.53;;;;;;;28.56;51.16;155916.44;10586389;28;20054;-71
2023/08/18 16:20:29;;;;;;;3.20;3.00;;;;;;;28.75;50.47;155964.78;10587391;28;20070;-71
2023/08/18 16:25:31;;;;;;;3.03;2.83;;;;;;;28.77;50.39;155968.69;10588437;28;20063;-72
2023/08/18 16:30:33;;;;;;;3.00;2.80;;;;;;;28.72;49.99;155955.63;10585964;28;20036;-72
2023/08/18 16:35:35;;;;;;;3.40;3.20;;;;;;;28.78;49.63;155971.34;10587155;28;20036;-72
2023/08/18 16:40:37;;;;;;;6.82;6.32;;;;;;;28.80;49.13;155977.84;10586261;28;20564;-72
2023/08/18 16:45:38;;;;;;;3.22;3.03;;;;;;;28.78;48.68;155971.34;10585875;28;20401;-71
2023/08/18 16:50:42;;;;;;;3.10;2.90;;;;;;;28.76;49.38;155967.38;10586811;28;20048;-72
2023/08/18 16:55:43;;;;;;;4.10;3.40;;;;;;;28.58;50.64;155920.34;10585900;28;20096;-71
2023/08/18 17:00:45;;;;;;;3.47;3.17;;;;;;;28.48;51.37;155895.53;10585654;28;20066;-72
2023/08/18 17:05:48;;;;;;;2.75;2.55;;;;;;;28.41;51.38;155878.50;10586094;28;20096;-72
2023/08/18 17:10:54;;;;;;;3.40;3.15;;;;;;;28.28;52.18;155843.19;10585723;28;20415;-72
2023/08/18 17:15:56;;;;;;;2.80;2.60;;;;;;;28.16;52.46;155814.47;10585047;28;20047;-72
2023/08/18 17:20:58;;;;;;;4.50;4.20;;;;;;;28.00;53.71;155772.66;10584180;28;20371;-71
2023/08/18 17:26:00;;;;;;;4.20;3.80;;;;;;;27.90;53.49;155746.53;10584080;28;20036;-72
2023/08/18 17:31:09;;;;;;;3.20;2.90;;;;;;;27.84;54.14;155732.16;10583705;28;20382;-71
2023/08/18 17:36:11;;;;;;;3.63;3.42;;;;;;;27.74;55.04;155706.03;10583591;28;20533;-71
2023/08/18 17:41:13;;;;;;;4.10;3.80;;;;;;;27.62;56.47;155675.94;10583341;28;20042;-72
2023/08/18 17:46:15;;;;;;;3.20;3.00;;;;;;;27.46;58.39;155632.88;10583467;28;20047;-72
2023/08/18 17:51:17;;;;;;;4.20;3.85;;;;;;;27.42;59.59;155623.72;10585493;28;20043;-73
2023/08/18 17:56:19;;;;;;;4.35;4.05;;;;;;;27.16;59.41;155557.13;10584914;28;20046;-72
2023/08/18 18:01:20;;;;;;;4.18;3.85;;;;;;;27.02;60.38;155521.81;10577438;28;20039;-72
2023/08/18 18:06:22;;;;;;;4.20;3.90;;;;;;;26.85;61.23;155477.44;10582232;28;20027;-72
2023/08/18 18:11:24;;;;;;;6.35;4.78;;;;;;;26.74;62.09;155448.69;10583104;27;20046;-71
2023/08/18 18:16:26;;;;;;;4.30;4.00;;;;;;;26.59;62.70;155410.88;10584077;28;20548;-71
2023/08/18 18:21:29;;;;;;;4.32;4.07;;;;;;;26.39;64.17;155359.94;10583674;28;20093;-72
2023/08/18 18:26:31;;;;;;;4.78;4.47;;;;;;;26.33;63.57;155345.56;10583452;28;20040;-72
2023/08/18 18:31:33;;;;;;;5.22;4.68;;;;;;;26.51;66.79;155389.97;10583124;28;20050;-71
2023/08/18 18:36:35;;;;;;;6.25;4.78;;;;;;;26.33;65.98;155345.56;10586894;28;20039;-71
2023/08/18 18:41:37;;;;;;;5.10;4.70;;;;;;;26.25;64.92;155324.66;10583045;28;20056;-72
2023/08/18 18:46:42;;;;;;;4.78;4.43;;;;;;;26.17;65.25;155303.81;10583491;28;20043;-72
2023/08/18 18:51:45;;;;;;;6.05;5.47;;;;;;;25.90;66.19;155234.69;10585245;28;20043;-73
2023/08/18 18:56:47;;;;;;;5.88;5.47;;;;;;;25.74;67.04;155192.88;10630292;27;20043;-72
2023/08/18 19:01:49;;;;;;;5.97;5.43;;;;;;;25.51;69.64;155134.16;10615987;27;20051;-72
2023/08/18 19:06:51;;;;;;;6.75;5.63;;;;;;;25.30;71.13;155080.69;10618814;27;20042;-72
2023/08/18 19:11:53;;;;;;;7.32;6.75;;;;;;;25.27;70.76;155074.16;10635688;27;20460;-72
2023/08/18 19:16:55;;;;;;;6.47;6.07;;;;;;;25.31;70.44;155083.28;10638491;27;20066;-73
2023/08/18 19:21:57;;;;;;;7.00;6.40;;;;;;;25.24;70.76;155065.06;10637177;27;20078;-73
2023/08/18 19:26:59;;;;;;;7.70;7.20;;;;;;;25.26;71.07;155071.53;10638143;27;20046;-73
2023/08/18 19:32:03;;;;;;;7.35;6.85;;;;;;;24.94;73.38;154989.34;10639661;27;20042;-72
2023/08/18 19:37:07;;;;;;;7.75;7.25;;;;;;;24.58;74.84;154898.09;10638124;27;20058;-72
2023/08/18 19:42:10;;;;;;;7.88;7.18;;;;;;;24.75;74.88;154941.13;10637394;27;20118;-72
2023/08/18 19:47:12;;;;;;;8.43;7.82;;;;;;;24.74;75.74;154937.19;10634892;27;20046;-73
2023/08/18 19:52:15;;;;;;;8.88;8.25;;;;;;;24.57;76.06;154895.50;10637088;27;20050;-74
2023/08/18 19:57:23;;;;;;;9.35;8.63;;;;;;;24.35;77.41;154838.09;10635609;27;20102;-73
2023/08/18 20:02:24;;;;;;;8.77;8.18;;;;;;;24.31;78.19;154827.66;10635009;27;20064;-73
2023/08/18 20:07:27;;;;;;;9.23;8.63;;;;;;;24.04;79.52;154759.91;10636184;27;20040;-73
2023/08/18 20:12:33;;;;;;;9.35;8.73;;;;;;;23.96;80.33;154737.75;10635540;27;20500;-73
2023/08/18 20:17:36;;;;;;;9.88;9.27;;;;;;;23.84;81.97;154707.75;10635222;27;20479;-72
2023/08/18 20:22:38;;;;;;;9.48;8.85;;;;;;;23.76;81.89;154688.19;10632497;27;20055;-73
2023/08/18 20:27:40;;;;;;;9.82;9.13;;;;;;;23.66;82.30;154662.16;10634950;27;20087;-74
2023/08/18 20:32:42;;;;;;;9.23;8.48;;;;;;;23.58;82.72;154641.25;10633810;27;20043;-73
2023/08/18 20:37:45;;;;;;;10.63;9.93;;;;;;;23.46;83.65;154609.97;10634745;27;20039;-72
2023/08/18 20:42:50;;;;;;;9.55;8.95;;;;;;;23.17;85.56;154538.34;10634339;27;20061;-73
2023/08/18 20:47:53;;;;;;;10.25;9.57;;;;;;;23.14;85.49;154529.22;10637282;27;20121;-73
2023/08/18 20:52:56;;;;;;;9.65;8.95;;;;;;;23.18;85.77;154539.63;10634502;27;20498;-73
2023/08/18 20:57:58;;;;;;;9.75;9.15;;;;;;;23.01;87.04;154496.66;10631723;27;20412;-74
2023/08/18 21:03:00;;;;;;;10.63;9.82;;;;;;;23.13;87.26;154527.91;10633974;27;20039;-72
2023/08/18 21:08:02;;;;;;;9.35;8.75;;;;;;;23.15;86.79;154533.16;10634763;27;20110;-73
2023/08/18 21:13:05;;;;;;;9.38;8.77;;;;;;;23.00;87.84;154494.06;10636497;27;20047;-71
2023/08/18 21:18:06;;;;;;;10.10;9.45;;;;;;;22.82;89.68;154448.44;10631644;27;20042;-72
2023/08/18 21:23:09;;;;;;;10.35;9.00;;;;;;;22.68;90.59;154411.97;10631914;27;20060;-72
2023/08/18 21:28:11;;;;;;;9.88;9.18;;;;;;;22.63;90.60;154400.25;10613896;27;20070;-72
2023/08/18 21:33:12;;;;;;;9.70;8.95;;;;;;;22.63;90.09;154400.25;10609215;27;20053;-72
2023/08/18 21:38:14;;;;;;;9.70;9.07;;;;;;;22.58;90.87;154387.25;10628262;27;20046;-73
2023/08/18 21:43:16;;;;;;;11.02;10.13;;;;;;;22.71;90.57;154419.81;10626419;27;20071;-72
2023/08/18 21:48:18;;;;;;;10.38;9.57;;;;;;;22.47;92.00;154358.59;10626376;27;20075;-72
2023/08/18 21:53:21;;;;;;;9.88;9.07;;;;;;;22.50;91.17;154365.09;10626648;27;20038;-73
2023/08/18 21:58:23;;;;;;;11.05;10.25;;;;;;;22.45;91.51;154353.41;10626569;27;20114;-72
2023/08/18 22:03:25;;;;;;;10.73;9.93;;;;;;;22.35;92.13;154328.63;10626460;27;20050;-73
2023/08/18 22:08:27;;;;;;;11.65;10.73;;;;;;;22.70;90.43;154415.88;10626402;27;20047;-72
2023/08/18 22:13:29;;;;;;;11.38;10.60;;;;;;;22.45;91.42;154352.09;10627011;27;20039;-71
2023/08/18 22:18:31;;;;;;;12.32;11.23;;;;;;;22.27;93.09;154306.50;10627202;27;20043;-72
2023/08/18 22:23:35;;;;;;;12.25;11.18;;;;;;;22.19;94.05;154287.00;10625750;27;20035;-72
2023/08/18 22:28:37;;;;;;;15.32;13.75;;;;;;;22.25;93.18;154302.59;10625204;27;20043;-73
2023/08/18 22:33:39;;;;;;;16.88;14.75;;;;;;;22.10;93.52;154264.81;10624860;27;20039;-71
2023/08/18 22:38:41;;;;;;;14.88;13.45;;;;;;;21.95;94.34;154224.44;10626006;28;20441;-72
2023/08/18 22:43:43;;;;;;;15.98;14.57;;;;;;;21.98;94.69;154232.28;10625419;28;20043;-73
2023/08/18 22:48:44;;;;;;;14.98;13.43;;;;;;;22.04;93.41;154247.88;10625211;28;20045;-71
2023/08/18 22:53:49;;;;;;;13.68;12.48;;;;;;;22.16;92.45;154280.47;10625130;28;20086;-73
2023/08/18 22:58:50;;;;;;;11.77;10.88;;;;;;;22.17;91.79;154283.06;10624167;28;20039;-72
2023/08/18 23:03:52;;;;;;;11.82;10.93;;;;;;;22.09;92.46;154260.88;10624313;28;20080;-72